Home   Weather   France   Annecy   Past weeks
Flag for France

Past Weather in Annecy, Haute-Savoie, France — September 2019

Currently: 73 °F. Sunny. (Weather station: Chambery / Aix-Les-Bains, France). See more current weather

September 2019 Weather in Annecy — Graph

°F

High & Low Weather Summary for September 2019

 TemperatureHumidityPressure
High88 °F (Sep 17, 4:30 pm)100% (Sep 4, 5:00 am)30.48 "Hg (Sep 4, 5:00 am)
Low45 °F (Sep 9, 3:00 am)31% (Sep 7, 2:30 pm)29.83 "Hg (Sep 22, 2:30 pm)
Average64 °F71%30.10 "Hg
* Reported Sep 1 12:00 am — Sep 30 11:30 pm, Annecy. Weather by CustomWeather, © 2024

Note: Actual official high and low records may vary slightly from our data, if they occured in-between our weather recording intervals... More about our weather records

Annecy Weather History for September 1, 2019

Scroll right to see more
 ConditionsComfort  
Time TempWeatherWind HumidityBarometerVisibility
12:00 am
Sun, Sep 1
73 °FClear.10 mph57%29.98 "Hg10 mi
12:30 am75 °FClear.2 mph54%29.98 "Hg10 mi
1:00 am73 °FPassing clouds.3 mph61%30.01 "HgN/A
1:30 am70 °FClear.3 mph69%30.01 "Hg10 mi
2:00 am68 °FPassing clouds.3 mph73%30.01 "HgN/A
2:30 am68 °FPassing clouds.3 mph73%30.01 "HgN/A
3:00 am68 °FClear.3 mph73%30.01 "Hg10 mi
3:30 am66 °FClear.3 mph83%29.98 "Hg10 mi
4:00 am64 °FClear.6 mph83%29.98 "Hg10 mi
4:30 am70 °FClear.6 mph69%29.95 "Hg10 mi
5:30 am68 °FClear.3 mph73%29.95 "Hg10 mi
6:00 am68 °FClear.No wind73%29.95 "Hg10 mi
6:30 am66 °FPassing clouds.3 mph83%29.95 "HgN/A
7:00 am64 °FSunny.5 mph88%29.95 "Hg10 mi
7:30 am66 °FSunny.6 mph83%29.98 "Hg10 mi
8:00 am66 °FPassing clouds.5 mph83%29.98 "HgN/A
8:30 am68 °FSunny.2 mph73%29.98 "Hg10 mi
9:00 am72 °FSunny.2 mph69%29.98 "Hg10 mi
9:30 am73 °FSunny.2 mph65%30.01 "Hg10 mi
10:00 am75 °FSunny.3 mph65%30.01 "Hg10 mi
10:30 am75 °FSunny.3 mph65%30.01 "Hg10 mi
11:00 am77 °FPartly sunny.2 mph57%30.01 "HgN/A
11:30 am79 °FPartly sunny.1 mph54%29.98 "HgN/A
12:00 pm79 °FPassing clouds.6 mph54%29.98 "HgN/A
12:30 pm77 °FPartly sunny.7 mph61%29.98 "HgN/A
1:00 pm77 °FSunny.7 mph61%29.98 "Hg10 mi
1:30 pm77 °FSunny.5 mph61%29.98 "Hg10 mi
2:00 pm77 °FSunny.2 mph61%29.98 "Hg10 mi
2:30 pm77 °FBroken clouds.3 mph65%29.98 "HgN/A
3:00 pm77 °FPartly sunny.5 mph65%29.98 "HgN/A
3:30 pm75 °FBroken clouds.6 mph65%29.98 "HgN/A
4:00 pm77 °FBroken clouds.3 mph65%29.98 "HgN/A
4:30 pm77 °FPassing clouds.6 mph65%29.95 "HgN/A
5:00 pm77 °FPassing clouds.6 mph65%29.95 "HgN/A
5:30 pm77 °FSunny.2 mph61%29.95 "Hg10 mi
6:00 pm77 °FSunny.5 mph61%29.95 "Hg10 mi
6:30 pm77 °FBroken clouds.3 mph61%29.98 "HgN/A
7:00 pm75 °FPassing clouds.2 mph61%29.98 "HgN/A
7:30 pm73 °FPartly sunny.3 mph69%29.98 "HgN/A
8:00 pm73 °FPartly sunny.2 mph65%29.98 "HgN/A
8:30 pm72 °FPassing clouds.3 mph69%30.01 "HgN/A
9:00 pm72 °FMostly cloudy.3 mph69%30.01 "HgN/A
9:30 pm70 °FMostly cloudy.3 mph73%30.01 "HgN/A
10:00 pm70 °FPartly cloudy.3 mph73%30.04 "HgN/A
10:30 pm70 °FOvercast.5 mph73%30.04 "HgN/A
11:00 pm70 °FMostly cloudy.2 mph69%30.04 "HgN/A
11:30 pm70 °FMostly cloudy.1 mph73%30.04 "HgN/A
Weather by CustomWeather, © 2024

See weather overview